Time;durP1;ratioP1;P1;durP2;ratioP2;P2;SDS_P1;SDS_P2;PMS_P1;PMS_P2;Temp;Humidity;BMP_temperature;BMP_pressure;BME280_temperature;BME280_humidity;BME280_pressure;Samples;Min_cycle;Max_cycle;Signal;HPM_P1;HPM_P2
2022/01/01 00:02:02;;;;;;;43.60;32.45;;;;;;;1.17;100.00;96874.97;6304714;22;20000;-62
2022/01/01 00:04:28;;;;;;;42.35;30.83;;;;;;;1.14;100.00;96869.00;6304996;22;20004;-63
2022/01/01 00:06:53;;;;;;;42.30;29.70;;;;;;;1.10;100.00;96861.38;6191291;22;20437;-62
2022/01/01 00:09:19;;;;;;;40.08;31.75;;;;;;;1.06;100.00;96862.41;6178609;23;20013;-63
2022/01/01 00:11:50;;;;;;;38.55;29.38;;;;;;;1.06;100.00;96873.63;6178514;23;20001;-63
2022/01/01 00:14:16;;;;;;;42.35;31.42;;;;;;;1.09;100.00;96857.97;6178826;22;20093;-62
2022/01/01 00:16:41;;;;;;;42.45;29.88;;;;;;;1.08;100.00;96861.44;6178529;23;20005;-63
2022/01/01 00:19:07;;;;;;;42.20;31.08;;;;;;;0.99;100.00;96861.75;6178697;23;20067;-62
2022/01/01 00:21:32;;;;;;;38.83;30.20;;;;;;;0.95;100.00;96857.59;6178748;23;20039;-63
2022/01/01 00:23:57;;;;;;;43.80;31.20;;;;;;;0.89;100.00;96850.03;6178670;23;20001;-61
2022/01/01 00:26:23;;;;;;;44.33;32.60;;;;;;;0.89;100.00;96856.09;6177754;23;20143;-63
2022/01/01 00:28:48;;;;;;;37.97;29.92;;;;;;;0.90;100.00;96857.78;6178366;23;20059;-64
2022/01/01 00:31:14;;;;;;;36.25;28.00;;;;;;;0.91;100.00;96856.88;6178636;23;20398;-62
2022/01/01 00:33:39;;;;;;;34.75;26.48;;;;;;;0.93;100.00;96862.84;6178680;23;20032;-62
2022/01/01 00:36:05;;;;;;;45.15;32.47;;;;;;;0.91;100.00;96859.47;6178448;23;20345;-64
2022/01/01 00:38:31;;;;;;;42.05;30.15;;;;;;;0.87;100.00;96854.44;6178414;23;20020;-63
2022/01/01 00:40:56;;;;;;;34.17;24.63;;;;;;;0.84;100.00;96853.63;6179592;23;20428;-63
2022/01/01 00:43:22;;;;;;;32.03;24.85;;;;;;;0.87;100.00;96844.06;6179803;23;20013;-63
2022/01/01 00:45:47;;;;;;;31.70;24.23;;;;;;;0.81;100.00;96847.69;6179419;23;20005;-63
2022/01/01 00:48:13;;;;;;;34.33;26.08;;;;;;;0.77;100.00;96843.53;6179589;23;20001;-63
2022/01/01 00:50:39;;;;;;;34.47;24.60;;;;;;;0.73;100.00;96842.78;6153490;23;20070;-63
2022/01/01 00:53:04;;;;;;;40.05;27.35;;;;;;;0.69;100.00;96844.66;6153457;23;20096;-63
2022/01/01 00:55:29;;;;;;;42.95;29.70;;;;;;;0.70;100.00;96845.47;6179783;23;20013;-63
2022/01/01 00:57:55;;;;;;;39.28;30.23;;;;;;;0.70;100.00;96845.47;6179771;23;20333;-63
2022/01/01 01:00:20;;;;;;;48.20;31.70;;;;;;;0.70;100.00;96838.56;6179855;23;20008;-63
2022/01/01 01:02:45;;;;;;;64.65;37.92;;;;;;;0.71;100.00;96831.63;6179790;23;20001;-63
2022/01/01 01:05:11;;;;;;;67.88;35.92;;;;;;;0.77;100.00;96836.59;6179716;23;20048;-64
2022/01/01 01:07:36;;;;;;;48.00;29.65;;;;;;;0.80;100.00;96835.63;6179968;23;20318;-64
2022/01/01 01:10:03;;;;;;;47.22;30.02;;;;;;;0.76;100.00;96837.47;6152121;23;20036;-64
2022/01/01 01:12:38;;;;;;;57.15;31.00;;;;;;;0.70;100.00;96835.13;6179151;23;20418;-63
2022/01/01 01:15:04;;;;;;;44.00;27.90;;;;;;;0.67;100.00;96836.09;6153010;23;20315;-63
2022/01/01 01:17:30;;;;;;;43.15;28.55;;;;;;;0.69;100.00;96838.59;6179430;23;20008;-63
2022/01/01 01:19:55;;;;;;;36.63;27.00;;;;;;;0.65;100.00;96837.84;6179676;23;20471;-63
2022/01/01 01:22:21;;;;;;;31.20;22.30;;;;;;;0.62;100.00;96834.53;6179872;23;20005;-63
2022/01/01 01:24:46;;;;;;;31.02;21.80;;;;;;;0.60;100.00;96833.75;6179699;23;20041;-62
2022/01/01 01:27:11;;;;;;;28.42;20.70;;;;;;;0.58;100.00;96828.59;6179513;23;20437;-63
2022/01/01 01:29:41;;;;;;;34.47;22.35;;;;;;;0.55;100.00;96815.75;6178707;23;20062;-63
2022/01/01 01:32:07;;;;;;;30.75;21.15;;;;;;;0.51;100.00;96815.00;6179743;23;20395;-63
2022/01/01 01:34:33;;;;;;;31.38;20.52;;;;;;;0.48;100.00;96816.88;6179429;23;20036;-62
2022/01/01 01:36:58;;;;;;;26.77;18.98;;;;;;;0.52;100.00;96816.69;6179484;23;20013;-63
2022/01/01 01:39:23;;;;;;;24.33;19.23;;;;;;;0.53;100.00;96807.19;6179651;23;20084;-63
2022/01/01 01:41:51;;;;;;;28.50;20.15;;;;;;;0.54;100.00;96812.31;6179458;23;20005;-63
2022/01/01 01:44:32;;;;;;;21.98;18.05;;;;;;;0.53;100.00;96812.38;6179586;23;20036;-63
2022/01/01 01:47:01;;;;;;;21.73;16.83;;;;;;;0.48;100.00;96811.69;6179484;23;20009;-62
2022/01/01 01:49:26;;;;;;;22.63;16.73;;;;;;;0.45;100.00;96809.22;6179595;23;20012;-63
2022/01/01 01:51:53;;;;;;;21.02;16.80;;;;;;;0.47;100.00;96813.41;6179316;23;20084;-63
2022/01/01 01:54:19;;;;;;;16.83;14.02;;;;;;;0.45;100.00;96809.22;6179619;23;20005;-63
2022/01/01 01:56:45;;;;;;;20.27;16.58;;;;;;;0.43;100.00;96810.06;6179564;23;20012;-63
2022/01/01 01:59:11;;;;;;;18.95;15.23;;;;;;;0.40;100.00;96811.94;6178940;22;20009;-63
2022/01/01 02:01:36;;;;;;;23.52;16.23;;;;;;;0.37;100.00;96812.06;6179698;23;20019;-63
2022/01/01 02:04:02;;;;;;;18.23;15.23;;;;;;;0.36;100.00;96810.38;6153031;23;20032;-63
2022/01/01 02:06:27;;;;;;;16.38;14.60;;;;;;;0.38;100.00;96809.38;6179197;23;20017;-63
2022/01/01 02:08:53;;;;;;;19.38;15.75;;;;;;;0.36;100.00;96807.78;6179437;23;20138;-63
2022/01/01 02:11:20;;;;;;;20.30;16.90;;;;;;;0.35;100.00;96811.25;6179715;23;20016;-63
2022/01/01 02:18:46;;;;;;;22.60;16.20;;;;;;;0.21;100.00;96812.56;6179693;23;20016;-63
2022/01/01 02:21:12;;;;;;;22.30;17.33;;;;;;;0.20;100.00;96816.03;6179261;23;20058;-62
2022/01/01 02:23:42;;;;;;;19.50;16.65;;;;;;;0.18;100.00;96807.47;6179617;23;20604;-63
2022/01/01 02:26:12;;;;;;;19.60;15.02;;;;;;;0.21;100.00;96809.97;6179532;23;20398;-62
2022/01/01 02:28:48;;;;;;;15.68;13.45;;;;;;;0.20;100.00;96810.00;6153021;22;20433;-63
2022/01/01 02:31:17;;;;;;;;;;;;;;;0.17;100.00;96804.94;6180391;23;20001;-63
2022/01/01 02:33:44;;;;;;;15.27;12.77;;;;;;;0.12;100.00;96805.09;6179574;23;19911;-63
2022/01/01 02:36:09;;;;;;;17.08;12.90;;;;;;;0.18;100.00;96810.06;6179478;23;20012;-63
2022/01/01 02:38:36;;;;;;;14.75;12.23;;;;;;;0.23;100.00;96805.56;6179467;23;20079;-63
2022/01/01 02:41:02;;;;;;;16.67;13.60;;;;;;;0.27;100.00;96804.56;6179087;23;20429;-63
2022/01/01 02:43:30;;;;;;;14.90;13.02;;;;;;;0.21;100.00;96801.34;6179594;23;20005;-63
2022/01/01 02:45:56;;;;;;;14.85;12.60;;;;;;;0.23;100.00;96810.75;6179206;23;20005;-62
2022/01/01 02:48:23;;;;;;;13.35;11.95;;;;;;;0.21;100.00;96801.34;6179440;23;20016;-62
2022/01/01 02:50:51;;;;;;;15.05;13.13;;;;;;;0.18;100.00;96789.34;6179364;23;20080;-62
2022/01/01 02:53:17;;;;;;;15.52;12.18;;;;;;;0.22;100.00;96797.84;6179461;23;20005;-62
2022/01/01 02:55:43;;;;;;;16.90;12.10;;;;;;;0.23;100.00;96790.03;6179172;23;20322;-62
2022/01/01 02:58:13;;;;;;;12.90;10.43;;;;;;;0.22;100.00;96797.84;6179211;23;20119;-62
2022/01/01 03:00:41;;;;;;;11.18;10.02;;;;;;;0.20;100.00;96795.31;6179261;23;20054;-62
2022/01/01 03:03:07;;;;;;;12.63;10.40;;;;;;;0.24;100.00;96796.06;6178583;23;20402;-62
2022/01/01 03:05:33;;;;;;;14.43;10.90;;;;;;;0.23;100.00;96796.97;6179197;23;20040;-62
2022/01/01 03:07:59;;;;;;;12.43;10.75;;;;;;;0.19;100.00;96792.78;6179382;23;20545;-62
2022/01/01 03:10:24;;;;;;;12.23;10.05;;;;;;;0.17;100.00;96795.44;6179477;23;20005;-62
2022/01/01 03:12:50;;;;;;;16.55;9.95;;;;;;;0.18;100.00;96783.31;6179140;23;20028;-62
2022/01/01 03:15:15;;;;;;;15.30;9.60;;;;;;;0.18;100.00;96780.72;6179202;23;20009;-62
2022/01/01 03:17:41;;;;;;;15.82;9.93;;;;;;;0.17;100.00;96782.47;6179081;23;20058;-62
2022/01/01 03:20:07;;;;;;;13.77;11.00;;;;;;;0.16;100.00;96773.03;6179128;23;20001;-62
2022/01/01 03:22:32;;;;;;;11.85;10.40;;;;;;;0.12;100.00;96779.19;6178842;23;20013;-62
2022/01/01 03:24:57;;;;;;;16.45;11.02;;;;;;;0.09;100.00;96771.50;6178910;23;20349;-62
2022/01/01 03:27:23;;;;;;;14.50;9.48;;;;;;;0.07;100.00;96770.72;6179229;23;20008;-66
2022/01/01 03:29:48;;;;;;;11.02;8.65;;;;;;;0.08;100.00;96769.81;6179030;23;20066;-66
2022/01/01 03:32:15;;;;;;;13.02;9.48;;;;;;;0.08;100.00;96764.63;6177845;23;20039;-66
2022/01/01 03:34:42;;;;;;;12.23;9.85;;;;;;;0.08;100.00;96762.03;6178616;23;20013;-67
2022/01/01 03:37:07;;;;;;;12.95;8.15;;;;;;;0.11;100.00;96765.38;6179251;23;20076;-66
2022/01/01 03:39:33;;;;;;;13.25;8.75;;;;;;;0.27;100.00;96762.28;6179112;23;20378;-67
2022/01/01 03:41:58;;;;;;;14.70;9.50;;;;;;;0.23;100.00;96766.72;6178611;23;20511;-66
2022/01/01 03:44:24;;;;;;;11.88;9.05;;;;;;;0.19;100.00;96762.53;6178975;23;20032;-66
2022/01/01 03:46:49;;;;;;;12.95;8.65;;;;;;;0.14;100.00;96764.47;6178990;23;20345;-67
2022/01/01 03:49:14;;;;;;;11.45;8.10;;;;;;;0.16;100.00;96769.56;6178278;23;20005;-67
2022/01/01 03:51:41;;;;;;;11.23;8.18;;;;;;;0.16;100.00;96764.38;6178395;23;20001;-66
2022/01/01 03:54:06;;;;;;;10.00;7.80;;;;;;;0.11;100.00;96760.22;6178707;23;20028;-66
2022/01/01 03:56:32;;;;;;;10.40;7.65;;;;;;;0.10;100.00;96762.84;6178656;23;20012;-66
2022/01/01 03:58:57;;;;;;;10.27;7.20;;;;;;;0.06;100.00;96758.66;6178740;23;20058;-67
2022/01/01 04:01:22;;;;;;;10.02;7.43;;;;;;;-0.04;100.00;96761.56;6178983;23;20009;-67
2022/01/01 04:03:48;;;;;;;8.82;7.07;;;;;;;-0.04;100.00;96756.38;6178677;23;20372;-66
2022/01/01 04:06:13;;;;;;;11.35;7.25;;;;;;;0.06;100.00;96761.25;6178543;23;20094;-66
2022/01/01 04:08:38;;;;;;;7.85;6.78;;;;;;;0.05;100.00;96757.84;6178777;23;20013;-66
2022/01/01 04:11:04;;;;;;;9.80;7.05;;;;;;;0.01;100.00;96763.16;6178534;23;20001;-67
2022/01/01 04:13:29;;;;;;;12.82;7.10;;;;;;;-0.02;100.00;96764.97;6178982;23;20005;-66
2022/01/01 04:15:55;;;;;;;7.85;6.28;;;;;;;0.04;100.00;96765.63;6179729;23;20013;-66
2022/01/01 04:18:38;;;;;;;7.30;5.95;;;;;;;0.01;100.00;96768.34;6179970;23;20005;-66
2022/01/01 04:21:11;;;;;;;8.15;6.30;;;;;;;0.03;100.00;96767.41;6179492;23;20001;-67
2022/01/01 04:23:38;;;;;;;7.63;6.25;;;;;;;0.05;100.00;96762.16;6179837;23;20025;-67
2022/01/01 04:26:06;;;;;;;9.07;6.45;;;;;;;0.06;100.00;96769.03;6179232;23;20389;-67
2022/01/01 04:28:32;;;;;;;9.45;6.38;;;;;;;0.03;100.00;96766.53;6179666;23;20444;-66
2022/01/01 04:30:57;;;;;;;11.05;6.53;;;;;;;0.03;100.00;96766.53;6179490;23;20008;-67
2022/01/01 04:33:23;;;;;;;6.30;5.07;;;;;;;0.03;100.00;96767.41;6179728;23;20005;-66
2022/01/01 04:35:48;;;;;;;9.75;5.63;;;;;;;-0.01;100.00;96766.66;6179897;23;20552;-67
2022/01/01 04:38:59;;;;;;;8.93;5.78;;;;;;;-0.05;100.00;96759.88;6179499;23;20009;-67
2022/01/01 04:40:59;;;;;;;7.43;6.10;;;;;;;-0.08;100.00;96759.13;6173577;22;20037;-66
2022/01/01 04:43:25;;;;;;;10.10;5.88;;;;;;;-0.11;100.00;96754.06;6179345;23;20452;-66
2022/01/01 04:45:50;;;;;;;9.13;5.80;;;;;;;-0.16;100.00;96752.47;6179802;23;20054;-67
2022/01/01 04:48:15;;;;;;;8.20;5.93;;;;;;;-0.19;100.00;96752.56;6179901;23;20016;-67
2022/01/01 04:50:41;;;;;;;8.60;5.78;;;;;;;-0.24;100.00;96759.59;6179669;23;20012;-67
2022/01/01 04:53:06;;;;;;;9.73;6.97;;;;;;;-0.20;100.00;96762.97;6179445;23;20529;-66
2022/01/01 04:55:31;;;;;;;7.38;5.38;;;;;;;-0.16;100.00;96761.97;6179649;23;20009;-66
2022/01/01 04:57:57;;;;;;;11.38;5.75;;;;;;;-0.16;100.00;96756.78;6179603;23;20005;-67
2022/01/01 05:00:23;;;;;;;9.98;6.50;;;;;;;-0.18;100.00;96756.84;6179734;23;20010;-67
2022/01/01 05:02:52;;;;;;;18.05;11.75;;;;;;;-0.16;100.00;96755.06;6179570;23;20522;-67
2022/01/01 05:05:17;;;;;;;18.85;11.65;;;;;;;-0.17;100.00;96768.03;6179683;22;20420;-66
2022/01/01 05:07:43;;;;;;;18.58;12.48;;;;;;;-0.20;100.00;96766.41;6179558;23;20005;-66
2022/01/01 05:10:09;;;;;;;25.67;17.52;;;;;;;-0.19;100.00;96762.91;6178883;23;20330;-67
2022/01/01 05:12:35;;;;;;;22.17;15.48;;;;;;;-0.15;100.00;96768.81;6179733;23;20008;-67
2022/01/01 05:15:00;;;;;;;29.10;17.17;;;;;;;-0.15;100.00;96768.81;6152791;23;20083;-67
2022/01/01 05:17:26;;;;;;;20.52;14.88;;;;;;;-0.16;100.00;96767.13;6179504;23;20080;-66
2022/01/01 05:19:51;;;;;;;20.70;16.85;;;;;;;-0.17;100.00;96778.38;6179637;23;20344;-66
2022/01/01 05:22:17;;;;;;;24.10;18.83;;;;;;;-0.09;100.00;96784.19;6179499;23;20063;-66
2022/01/01 05:24:42;;;;;;;17.75;13.57;;;;;;;0.00;100.00;96777.88;6179769;23;20012;-67
2022/01/01 05:27:07;;;;;;;19.60;14.40;;;;;;;-0.05;100.00;96784.91;6179403;23;20028;-66
2022/01/01 05:29:33;;;;;;;18.60;13.68;;;;;;;-0.17;100.00;96783.56;6179682;23;20375;-67
2022/01/01 05:31:58;;;;;;;18.02;12.40;;;;;;;-0.23;100.00;96786.34;6179493;23;20081;-67
2022/01/01 05:34:23;;;;;;;17.75;12.02;;;;;;;-0.25;100.00;96782.97;6179450;23;20001;-67
2022/01/01 05:36:49;;;;;;;15.00;10.80;;;;;;;-0.23;100.00;96786.34;6179583;23;20391;-66
2022/01/01 05:39:14;;;;;;;11.10;8.43;;;;;;;-0.18;100.00;96781.88;6179345;23;20013;-66
2022/01/01 05:41:40;;;;;;;10.23;8.27;;;;;;;-0.19;100.00;96777.59;6179586;23;20005;-66
2022/01/01 05:44:05;;;;;;;11.00;8.45;;;;;;;-0.21;100.00;96781.97;6179218;23;20433;-66
2022/01/01 05:46:32;;;;;;;8.95;7.03;;;;;;;-0.23;100.00;96771.66;6179523;23;20035;-67
2022/01/01 05:48:57;;;;;;;7.57;6.07;;;;;;;-0.19;100.00;96773.28;6179407;23;20005;-67
2022/01/01 05:51:23;;;;;;;7.88;7.15;;;;;;;-0.25;100.00;96776.03;6179448;23;20006;-66
2022/01/01 05:53:48;;;;;;;11.32;6.43;;;;;;;-0.28;100.00;96777.91;6179622;22;20009;-67
2022/01/01 05:56:14;;;;;;;9.57;6.28;;;;;;;-0.28;100.00;96778.72;6179214;23;20028;-66
2022/01/01 05:58:39;;;;;;;6.50;5.90;;;;;;;-0.11;100.00;96767.00;6179467;23;20040;-67
2022/01/01 06:01:04;;;;;;;6.35;5.75;;;;;;;-0.17;100.00;96780.97;6179444;23;20433;-66
2022/01/01 06:03:31;;;;;;;7.78;5.78;;;;;;;-0.22;100.00;96782.88;6179350;23;20379;-66
2022/01/01 06:05:57;;;;;;;6.57;5.20;;;;;;;-0.26;100.00;96782.09;6178865;23;20387;-67
2022/01/01 06:08:24;;;;;;;6.47;5.78;;;;;;;-0.29;100.00;96792.56;6179265;23;20009;-67
2022/01/01 06:10:49;;;;;;;6.38;5.28;;;;;;;-0.34;100.00;96790.13;6179500;23;20387;-66
2022/01/01 06:13:15;;;;;;;7.15;5.70;;;;;;;-0.36;100.00;96791.91;6179204;23;20009;-66
2022/01/01 06:15:42;;;;;;;13.48;6.45;;;;;;;-0.36;100.00;96788.47;6179308;23;20066;-66
2022/01/01 06:18:07;;;;;;;9.80;6.50;;;;;;;-0.37;100.00;96785.03;6152820;22;20460;-67
2022/01/01 06:20:33;;;;;;;9.93;6.35;;;;;;;-0.37;100.00;96785.03;6153111;23;20001;-66
2022/01/01 06:23:01;;;;;;;9.70;6.07;;;;;;;-0.39;100.00;96789.41;6152983;23;19997;-66
2022/01/01 06:25:26;;;;;;;11.55;6.35;;;;;;;-0.42;100.00;96791.28;6179343;23;20028;-66
2022/01/01 06:27:51;;;;;;;10.00;5.88;;;;;;;-0.44;100.00;96796.47;6178965;23;20016;-66
2022/01/01 06:30:17;;;;;;;12.02;8.43;;;;;;;-0.47;100.00;96797.41;6179186;23;20015;-66
2022/01/01 06:32:42;;;;;;;12.80;8.55;;;;;;;-0.40;100.00;96789.47;6179538;23;20522;-67
2022/01/01 06:35:08;;;;;;;9.98;7.65;;;;;;;-0.40;100.00;96800.66;6178999;23;20011;-66
2022/01/01 06:37:33;;;;;;;11.07;6.90;;;;;;;-0.43;100.00;96800.75;6179263;23;20009;-67
2022/01/01 06:39:58;;;;;;;11.10;7.30;;;;;;;-0.47;100.00;96794.00;6179017;23;20070;-66
2022/01/01 06:42:24;;;;;;;10.93;7.40;;;;;;;-0.49;100.00;96791.44;6179084;23;20005;-67
2022/01/01 06:44:49;;;;;;;14.40;7.05;;;;;;;-0.48;100.00;96795.72;6179189;23;20061;-66
2022/01/01 06:47:15;;;;;;;9.57;6.82;;;;;;;-0.46;100.00;96800.84;6179482;22;20008;-66
2022/01/01 06:49:40;;;;;;;9.02;5.78;;;;;;;-0.46;100.00;96800.84;6179206;23;20009;-66
2022/01/01 06:52:06;;;;;;;8.45;5.82;;;;;;;-0.43;100.00;96803.34;6179327;23;20348;-66
2022/01/01 06:54:31;;;;;;;10.43;6.22;;;;;;;-0.47;100.00;96800.00;6179240;23;20012;-66
2022/01/01 06:56:57;;;;;;;8.45;5.32;;;;;;;-0.58;100.00;96804.66;6178981;23;20400;-66
2022/01/01 06:59:22;;;;;;;7.00;5.43;;;;;;;-0.58;100.00;96799.50;6179284;23;20005;-66
2022/01/01 07:01:48;;;;;;;11.00;5.28;;;;;;;-0.55;100.00;96803.72;6179024;23;20438;-66
2022/01/01 07:04:13;;;;;;;7.60;4.78;;;;;;;-0.57;100.00;96798.59;6179024;23;20004;-66
2022/01/01 07:06:38;;;;;;;7.75;5.45;;;;;;;-0.57;100.00;96803.78;6178989;23;20446;-66
2022/01/01 07:09:04;;;;;;;6.93;5.38;;;;;;;-0.56;100.00;96804.59;6152492;23;20054;-66
2022/01/01 07:11:29;;;;;;;6.63;4.75;;;;;;;-0.59;100.00;96811.56;6179279;23;20005;-67
2022/01/01 07:13:55;;;;;;;6.60;5.72;;;;;;;-0.58;100.00;96812.44;6179148;23;20011;-66
2022/01/01 07:16:20;;;;;;;6.50;5.43;;;;;;;-0.59;100.00;96821.91;6178698;23;20434;-66
2022/01/01 07:18:46;;;;;;;5.40;4.88;;;;;;;-0.55;100.00;96822.69;6178801;23;20318;-66
2022/01/01 07:21:11;;;;;;;7.82;5.20;;;;;;;-0.50;100.00;96831.16;6178952;23;20001;-67
2022/01/01 07:23:37;;;;;;;9.43;5.75;;;;;;;-0.53;100.00;96826.06;6179033;23;20429;-66
2022/01/01 07:26:02;;;;;;;9.80;6.10;;;;;;;-0.46;100.00;96831.91;6178758;23;20127;-66
2022/01/01 07:28:27;;;;;;;9.82;7.25;;;;;;;-0.45;100.00;96839.59;6179073;23;20011;-66
2022/01/01 07:30:53;;;;;;;11.95;6.93;;;;;;;-0.47;100.00;96840.56;6179030;23;19997;-66
2022/01/01 07:33:18;;;;;;;8.13;6.97;;;;;;;-0.40;100.00;96841.22;6178909;23;20005;-66
2022/01/01 07:35:44;;;;;;;10.05;8.73;;;;;;;-0.35;100.00;96847.94;6178910;23;20050;-66
2022/01/01 07:38:09;;;;;;;15.75;9.70;;;;;;;-0.36;100.00;96841.06;6178671;23;20019;-66
2022/01/01 07:40:35;;;;;;;22.85;13.05;;;;;;;-0.37;100.00;96844.56;6178891;23;20126;-66
2022/01/01 07:43:01;;;;;;;22.98;13.00;;;;;;;-0.41;100.00;96845.53;6178889;23;20001;-66
2022/01/01 07:45:27;;;;;;;19.23;12.82;;;;;;;-0.41;100.00;96840.38;6179056;23;20074;-66
2022/01/01 07:47:52;;;;;;;15.15;11.00;;;;;;;-0.39;100.00;96851.53;6178889;23;20001;-66
2022/01/01 07:50:18;;;;;;;20.65;13.38;;;;;;;-0.35;100.00;96850.53;6178289;23;20005;-66
2022/01/01 07:52:43;;;;;;;16.85;12.77;;;;;;;-0.34;100.00;96853.97;6178885;23;20012;-67
2022/01/01 07:55:09;;;;;;;22.30;14.65;;;;;;;-0.33;100.00;96853.94;6178743;23;20330;-67
2022/01/01 07:57:35;;;;;;;17.25;11.57;;;;;;;-0.34;100.00;96853.97;6178799;23;20035;-66
2022/01/01 08:00:00;;;;;;;18.95;12.60;;;;;;;-0.33;100.00;96850.50;6178664;23;20109;-66
2022/01/01 08:02:26;;;;;;;14.88;11.60;;;;;;;-0.33;100.00;96851.34;6178930;23;20076;-67
2022/01/01 08:04:51;;;;;;;16.60;11.93;;;;;;;-0.32;100.00;96847.88;6178628;23;20040;-66
2022/01/01 08:07:17;;;;;;;10.50;9.40;;;;;;;-0.31;100.00;96840.94;6178811;23;20025;-66
2022/01/01 08:09:42;;;;;;;16.10;9.95;;;;;;;-0.27;100.00;96837.34;6178994;23;20044;-66
2022/01/01 08:12:08;;;;;;;15.70;11.68;;;;;;;-0.30;100.00;96840.03;6178876;23;20008;-66
2022/01/01 08:14:33;;;;;;;14.07;11.85;;;;;;;-0.32;100.00;96837.53;6178792;23;20068;-66
2022/01/01 08:17:04;;;;;;;12.77;11.23;;;;;;;-0.28;100.00;96850.38;6178910;23;20001;-66
2022/01/01 08:19:30;;;;;;;12.93;10.30;;;;;;;-0.26;100.00;96846.81;6178702;23;20409;-66
2022/01/01 08:21:57;;;;;;;10.68;9.45;;;;;;;-0.22;100.00;96843.25;6179024;23;20005;-66
2022/01/01 08:24:24;;;;;;;13.55;10.27;;;;;;;-0.24;100.00;96839.84;6178752;23;20062;-66
2022/01/01 08:26:50;;;;;;;19.48;12.95;;;;;;;-0.21;100.00;96841.50;6178845;23;20024;-66
2022/01/01 08:29:17;;;;;;;15.18;11.43;;;;;;;-0.14;100.00;96848.19;6178658;23;20032;-66
2022/01/01 08:31:42;;;;;;;12.95;9.98;;;;;;;-0.15;100.00;96847.34;6178885;23;20009;-66
2022/01/01 08:34:08;;;;;;;11.55;10.35;;;;;;;-0.13;100.00;96844.69;6178614;23;20005;-67
2022/01/01 08:36:34;;;;;;;11.57;9.80;;;;;;;-0.10;100.00;96852.41;6152880;23;20005;-66
2022/01/01 08:38:59;;;;;;;13.07;10.40;;;;;;;-0.08;100.00;96849.75;6152208;23;20356;-66
2022/01/01 08:41:26;;;;;;;10.88;9.02;;;;;;;-0.08;100.00;96852.31;6178747;23;20031;-66
2022/01/01 08:43:52;;;;;;;13.00;11.57;;;;;;;-0.05;100.00;96845.31;6178636;23;20337;-67
2022/01/01 08:46:18;;;;;;;39.97;26.88;;;;;;;0.02;100.00;96842.53;6178507;22;20001;-66
2022/01/01 08:48:43;;;;;;;20.92;16.20;;;;;;;0.07;100.00;96844.09;6178711;23;20043;-66
2022/01/01 08:51:28;;;;;;;15.95;14.23;;;;;;;0.08;100.00;96847.50;6178624;23;20034;-66
2022/01/01 08:53:53;;;;;;;22.42;18.30;;;;;;;0.07;100.00;96844.09;6178571;23;20000;-67
2022/01/01 08:56:19;;;;;;;20.35;18.05;;;;;;;0.07;100.00;96841.50;6178701;23;20049;-67
2022/01/01 08:58:45;;;;;;;19.98;17.60;;;;;;;0.11;100.00;96831.88;6178170;23;20009;-67
2022/01/01 09:01:10;;;;;;;20.25;18.13;;;;;;;0.10;100.00;96840.53;6178871;23;20009;-67
2022/01/01 09:03:36;;;;;;;25.45;22.75;;;;;;;0.09;100.00;96838.84;6180177;23;20009;-67
2022/01/01 09:06:03;;;;;;;21.45;19.17;;;;;;;0.03;100.00;96834.72;6179679;23;20043;-67
2022/01/01 09:08:29;;;;;;;21.42;19.23;;;;;;;0.03;100.00;96833.88;6179999;23;20033;-67
2022/01/01 09:10:55;;;;;;;20.98;18.85;;;;;;;0.05;100.00;96834.66;6179994;23;20001;-67
2022/01/01 09:13:20;;;;;;;23.40;19.42;;;;;;;0.09;100.00;96833.66;6179998;23;20005;-66
2022/01/01 09:15:46;;;;;;;22.08;19.38;;;;;;;0.11;100.00;96837.03;6153480;23;20008;-67
2022/01/01 09:18:11;;;;;;;21.42;18.50;;;;;;;0.10;100.00;96836.22;6179665;23;20052;-66
2022/01/01 09:20:36;;;;;;;22.65;18.27;;;;;;;0.12;100.00;96839.59;6179841;23;20001;-67
2022/01/01 09:23:02;;;;;;;19.98;17.48;;;;;;;0.17;100.00;96834.28;6179664;23;20005;-67
2022/01/01 09:25:27;;;;;;;22.00;17.25;;;;;;;0.17;100.00;96831.69;6179712;23;20005;-67
2022/01/01 09:27:52;;;;;;;18.85;16.92;;;;;;;0.14;100.00;96836.97;6178935;23;20458;-67
2022/01/01 09:30:20;;;;;;;19.38;17.35;;;;;;;0.13;100.00;96833.53;6179682;23;20043;-67
2022/01/01 09:32:45;;;;;;;22.13;19.20;;;;;;;0.17;100.00;96825.66;6179738;23;20032;-67
2022/01/01 09:35:11;;;;;;;18.05;16.20;;;;;;;0.25;100.00;96824.50;6179624;23;20001;-67
2022/01/01 09:37:36;;;;;;;18.42;16.52;;;;;;;0.36;100.00;96821.56;6179985;23;20051;-66
2022/01/01 09:40:03;;;;;;;17.55;15.75;;;;;;;0.74;100.00;96825.50;6179671;23;20009;-67
2022/01/01 09:42:29;;;;;;;18.88;16.95;;;;;;;1.42;100.00;96816.09;6179741;23;20337;-67
2022/01/01 09:44:57;;;;;;;24.85;22.35;;;;;;;2.06;100.00;96812.81;6179476;23;20005;-67
2022/01/01 09:47:23;;;;;;;47.83;42.63;;;;;;;2.63;100.00;96822.63;6179558;23;20008;-67
2022/01/01 09:49:48;;;;;;;33.72;30.10;;;;;;;3.16;100.00;96818.59;6179829;23;20009;-67
2022/01/01 09:52:14;;;;;;;25.90;23.20;;;;;;;3.63;100.00;96817.34;6179729;23;20032;-67
2022/01/01 09:54:41;;;;;;;24.20;21.70;;;;;;;4.17;100.00;96819.16;6179755;23;20012;-67
2022/01/01 09:57:06;;;;;;;20.10;18.20;;;;;;;4.49;100.00;96819.31;6179423;23;20318;-67
2022/01/01 09:59:33;;;;;;;22.63;19.70;;;;;;;4.81;100.00;96818.63;6179786;23;20074;-68
2022/01/01 10:01:58;;;;;;;20.98;18.95;;;;;;;5.14;100.00;96825.66;6179435;23;20005;-67
2022/01/01 10:04:24;;;;;;;21.50;19.48;;;;;;;5.39;99.94;96819.94;6179650;23;20101;-68
2022/01/01 10:07:03;;;;;;;21.05;19.15;;;;;;;5.65;99.54;96809.88;6179089;23;20084;-69
2022/01/01 10:09:33;;;;;;;18.77;17.02;;;;;;;5.99;98.58;96810.63;6179264;23;20409;-70
2022/01/01 10:12:00;;;;;;;15.98;14.40;;;;;;;6.27;96.50;96809.06;6178932;23;20004;-68
2022/01/01 10:14:39;;;;;;;16.02;14.50;;;;;;;6.45;95.39;96808.94;6179409;23;20086;-68
2022/01/01 10:17:19;;;;;;;11.77;10.77;;;;;;;6.75;94.24;96815.97;6179814;23;20005;-69
2022/01/01 10:19:47;;;;;;;12.02;10.93;;;;;;;7.00;94.96;96815.31;6179480;23;20032;-71
2022/01/01 10:22:15;;;;;;;14.43;13.15;;;;;;;7.20;93.65;96809.84;6179354;23;20494;-71
2022/01/01 10:27:47;;;;;;;16.05;14.55;;;;;;;7.26;92.18;96805.03;6179002;23;20097;-66
2022/01/01 10:30:19;;;;;;;11.88;10.65;;;;;;;7.38;88.59;96797.38;6178943;23;20432;-65
2022/01/01 10:33:07;;;;;;;7.80;6.88;;;;;;;7.45;84.78;96803.91;6179318;23;20005;-65
2022/01/01 10:35:39;;;;;;;14.90;12.98;;;;;;;7.49;85.37;96810.63;6179299;23;20001;-65
2022/01/01 10:38:17;;;;;;;12.00;10.20;;;;;;;7.66;85.43;96808.75;6179227;23;20036;-67
2022/01/01 10:40:43;;;;;;;7.65;5.80;;;;;;;7.97;83.01;96807.66;6179266;23;20432;-66
2022/01/01 10:43:10;;;;;;;8.05;7.35;;;;;;;8.27;78.76;96803.16;6178666;23;20410;-68
2022/01/01 10:45:41;;;;;;;12.25;10.98;;;;;;;8.51;80.03;96813.84;6179245;22;20040;-56
2022/01/01 10:51:00;;;;;;;30.90;15.65;;;;;;;8.89;72.92;96799.94;6179261;23;20516;-57
2022/01/01 10:53:27;;;;;;;50.90;27.92;;;;;;;9.11;73.47;96798.47;6178265;23;20013;-57
2022/01/01 10:55:59;;;;;;;35.58;19.88;;;;;;;9.31;74.89;96788.34;6177666;23;20005;-56
2022/01/01 10:58:35;;;;;;;25.48;15.30;;;;;;;9.60;74.04;96782.81;6177447;23;20551;-58
2022/01/01 11:01:07;;;;;;;;;;;;;;;9.95;70.97;96774.19;6178381;23;20098;-59
2022/01/01 11:03:38;;;;;;;5.72;4.88;;;;;;;10.40;70.25;96783.25;6177693;23;20344;-57
2022/01/01 11:06:05;;;;;;;4.82;4.43;;;;;;;10.86;70.05;96781.63;6177488;23;20453;-56
2022/01/01 11:08:33;;;;;;;4.28;3.88;;;;;;;10.95;70.28;96783.56;6177502;23;20009;-58
2022/01/01 11:10:59;;;;;;;3.75;3.45;;;;;;;10.93;65.99;96776.72;6177737;23;20020;-58
2022/01/01 11:13:24;;;;;;;2.90;2.70;;;;;;;10.80;67.31;96775.03;6177314;23;20004;-57
2022/01/01 11:15:51;;;;;;;4.45;2.35;;;;;;;10.69;71.37;96775.84;6176276;23;20005;-55
2022/01/01 11:18:17;;;;;;;4.35;3.80;;;;;;;10.52;68.18;96769.22;6177271;23;20345;-59
2022/01/01 11:20:43;;;;;;;2.28;2.17;;;;;;;10.59;71.09;96767.78;6177610;23;20084;-58
2022/01/01 11:23:11;;;;;;;2.35;2.15;;;;;;;10.81;67.11;96760.03;6177043;23;20111;-58
2022/01/01 11:25:39;;;;;;;2.35;2.22;;;;;;;10.97;67.75;96754.47;6177420;23;20449;-57
2022/01/01 11:28:07;;;;;;;2.92;2.72;;;;;;;11.46;66.23;96755.03;6175730;23;20452;-59